createdAt,value
2022-11-10T00:01:07.660Z,16.55
2022-11-10T00:03:37.689Z,16.55
2022-11-10T00:06:07.187Z,16.54
2022-11-10T00:08:34.804Z,16.51
2022-11-10T00:11:06.706Z,16.49
2022-11-10T00:13:57.199Z,16.46
2022-11-10T00:16:43.215Z,16.41
2022-11-10T00:19:10.276Z,16.36
2022-11-10T00:21:37.720Z,16.35
2022-11-10T00:24:05.344Z,16.33
2022-11-10T00:26:32.331Z,16.32
2022-11-10T00:29:00.599Z,16.30
2022-11-10T00:31:30.613Z,16.28
2022-11-10T00:33:58.379Z,16.26
2022-11-10T00:36:25.886Z,16.26
2022-11-10T00:38:53.070Z,16.26
2022-11-10T00:41:20.397Z,16.22
2022-11-10T00:43:48.143Z,16.21
2022-11-10T00:46:16.406Z,16.22
2022-11-10T00:48:43.406Z,16.19
2022-11-10T00:51:20.803Z,16.19
2022-11-10T00:53:47.928Z,16.19
2022-11-10T00:56:15.038Z,16.17
2022-11-10T00:58:42.809Z,16.16
2022-11-10T01:01:11.721Z,16.15
2022-11-10T01:03:40.183Z,16.15
2022-11-10T01:06:09.042Z,16.14
2022-11-10T01:08:36.403Z,16.13
2022-11-10T01:11:05.424Z,16.12
2022-11-10T01:13:33.092Z,16.11
2022-11-10T01:16:04.859Z,16.09
2022-11-10T01:18:31.892Z,16.08
2022-11-10T01:21:00.822Z,16.07
2022-11-10T01:23:28.165Z,16.07
2022-11-10T01:25:57.486Z,16.05
2022-11-10T01:28:25.072Z,16.04
2022-11-10T01:30:57.630Z,16.01
2022-11-10T01:33:24.852Z,16.01
2022-11-10T01:35:52.236Z,16.01
2022-11-10T01:38:20.727Z,15.98
2022-11-10T01:40:48.231Z,15.97
2022-11-10T01:43:16.127Z,15.97
2022-11-10T01:45:51.650Z,15.95
2022-11-10T01:48:32.899Z,15.94
2022-11-10T01:51:07.792Z,15.92
2022-11-10T01:53:43.050Z,15.91
2022-11-10T01:56:15.428Z,15.86
2022-11-10T01:58:51.113Z,15.75
2022-11-10T02:01:18.580Z,15.75
2022-11-10T02:03:50.787Z,15.77
2022-11-10T02:06:20.772Z,15.80
2022-11-10T02:08:51.153Z,15.80
2022-11-10T02:11:18.473Z,15.78
2022-11-10T02:13:45.890Z,15.78
2022-11-10T02:16:13.120Z,15.78
2022-11-10T02:18:40.083Z,15.76
2022-11-10T02:21:09.563Z,15.77
2022-11-10T02:23:49.386Z,15.76
2022-11-10T02:26:20.441Z,15.79
2022-11-10T02:28:47.484Z,15.79
2022-11-10T02:31:14.603Z,15.77
2022-11-10T02:33:42.033Z,15.72
2022-11-10T02:36:11.199Z,15.68
2022-11-10T02:38:39.062Z,15.63
2022-11-10T02:41:06.134Z,15.58
2022-11-10T02:43:33.823Z,15.59
2022-11-10T02:46:00.831Z,15.57
2022-11-10T02:48:27.771Z,15.54
2022-11-10T02:50:54.776Z,15.51
2022-11-10T02:53:23.523Z,15.44
2022-11-10T02:55:50.712Z,15.32
2022-11-10T02:58:17.690Z,15.33
2022-11-10T03:00:44.639Z,15.31
2022-11-10T03:03:11.588Z,15.29
2022-11-10T03:05:38.586Z,15.18
2022-11-10T03:08:05.687Z,15.17
2022-11-10T03:10:34.243Z,15.23
2022-11-10T03:13:02.859Z,15.28
2022-11-10T03:15:30.352Z,15.34
2022-11-10T03:18:02.182Z,15.36
2022-11-10T03:20:29.165Z,15.37
2022-11-10T03:23:01.755Z,15.31
2022-11-10T03:25:28.814Z,15.32
2022-11-10T03:27:57.139Z,15.35
2022-11-10T03:30:24.315Z,15.39
2022-11-10T03:32:51.307Z,15.42
2022-11-10T03:35:18.624Z,15.47
2022-11-10T03:37:45.620Z,15.51
2022-11-10T03:40:12.970Z,15.38
2022-11-10T03:42:42.964Z,15.20
2022-11-10T03:45:13.110Z,15.16
2022-11-10T03:47:40.607Z,15.13
2022-11-10T03:50:08.817Z,15.11
2022-11-10T03:52:38.468Z,15.13
2022-11-10T03:55:07.015Z,15.16
2022-11-10T03:57:34.108Z,15.15
2022-11-10T04:00:01.090Z,15.18
2022-11-10T04:02:29.473Z,15.20
2022-11-10T04:05:15.191Z,15.22
2022-11-10T04:08:00.767Z,15.20
2022-11-10T04:10:27.722Z,15.20
2022-11-10T04:13:13.047Z,15.18
2022-11-10T04:15:42.730Z,15.12
2022-11-10T04:18:24.513Z,15.09
2022-11-10T04:20:53.681Z,15.11
2022-11-10T04:23:27.767Z,15.14
2022-11-10T04:26:19.562Z,15.14
2022-11-10T04:28:48.825Z,15.10
2022-11-10T04:31:17.682Z,15.08
2022-11-10T04:33:46.883Z,15.06
2022-11-10T04:36:16.833Z,15.06
2022-11-10T04:38:44.515Z,15.10
2022-11-10T04:41:11.952Z,15.10
2022-11-10T04:43:40.220Z,15.10
2022-11-10T04:46:18.573Z,15.11
2022-11-10T04:48:46.917Z,15.14
2022-11-10T04:51:14.471Z,15.12
2022-11-10T04:53:41.486Z,15.13
2022-11-10T04:56:14.520Z,15.13
2022-11-10T04:58:41.879Z,15.17
2022-11-10T05:01:11.726Z,15.20
2022-11-10T05:03:39.338Z,15.20
2022-11-10T05:06:08.753Z,15.18
2022-11-10T05:08:35.797Z,15.14
2022-11-10T05:11:02.832Z,15.12
2022-11-10T05:13:30.517Z,15.11
2022-11-10T05:15:57.746Z,15.10
2022-11-10T05:18:25.069Z,15.06
2022-11-10T05:20:53.327Z,15.10
2022-11-10T05:23:40.328Z,15.12
2022-11-10T05:26:09.903Z,15.13
2022-11-10T05:28:37.321Z,15.16
2022-11-10T05:31:04.763Z,15.19
2022-11-10T05:33:33.421Z,15.22
2022-11-10T05:36:00.876Z,15.22
2022-11-10T05:38:29.253Z,15.19
2022-11-10T05:40:56.593Z,15.14
2022-11-10T05:43:24.627Z,15.15
2022-11-10T05:45:51.892Z,15.16
2022-11-10T05:48:18.898Z,15.13
2022-11-10T05:50:45.985Z,15.16
2022-11-10T05:53:13.271Z,15.20
2022-11-10T05:55:41.603Z,15.23
2022-11-10T05:58:09.094Z,15.23
2022-11-10T06:00:36.261Z,15.23
2022-11-10T06:03:06.147Z,15.25
2022-11-10T06:05:35.942Z,15.30
2022-11-10T06:08:05.349Z,15.36
2022-11-10T06:10:33.668Z,15.38
2022-11-10T06:13:03.048Z,15.43
2022-11-10T06:15:30.223Z,15.52
2022-11-10T06:17:58.341Z,15.59
2022-11-10T06:20:26.007Z,15.51
2022-11-10T06:23:02.091Z,15.54
2022-11-10T06:25:30.889Z,15.62
2022-11-10T06:27:58.962Z,15.69
2022-11-10T06:30:32.432Z,15.70
2022-11-10T06:32:59.702Z,15.76
2022-11-10T06:35:27.819Z,15.80
2022-11-10T06:38:01.142Z,15.85
2022-11-10T06:40:29.140Z,15.84
2022-11-10T06:42:56.267Z,15.83
2022-11-10T06:45:24.854Z,15.82
2022-11-10T06:48:01.464Z,15.86
2022-11-10T06:50:28.561Z,15.91
2022-11-10T06:52:56.100Z,15.98
2022-11-10T06:55:23.577Z,15.99
2022-11-10T06:57:50.653Z,16.03
2022-11-10T07:00:18.780Z,15.99
2022-11-10T07:02:45.807Z,16.03
2022-11-10T07:05:15.359Z,15.99
2022-11-10T07:07:42.371Z,16.02
2022-11-10T07:10:09.896Z,16.08
2022-11-10T07:12:36.823Z,16.16
2022-11-10T07:15:05.490Z,16.19
2022-11-10T07:17:32.442Z,16.17
2022-11-10T07:19:59.396Z,16.19
2022-11-10T07:22:38.617Z,16.19
2022-11-10T07:25:06.765Z,16.27
2022-11-10T07:27:33.795Z,16.33
2022-11-10T07:30:00.737Z,16.35
2022-11-10T07:32:27.728Z,16.39
2022-11-10T07:34:54.680Z,16.44
2022-11-10T07:37:21.680Z,16.51
2022-11-10T07:39:50.070Z,16.58
2022-11-10T07:42:17.017Z,16.59
2022-11-10T07:44:44.679Z,16.61
2022-11-10T07:47:11.622Z,16.60
2022-11-10T07:49:38.665Z,16.56
2022-11-10T07:52:05.575Z,16.62
2022-11-10T07:54:32.744Z,16.68
2022-11-10T07:57:01.057Z,16.75
2022-11-10T07:59:28.067Z,16.79
2022-11-10T08:01:55.029Z,16.76
2022-11-10T08:04:21.999Z,16.72
2022-11-10T08:06:49.070Z,16.77
2022-11-10T08:09:16.125Z,16.73
2022-11-10T08:11:43.105Z,16.72
2022-11-10T08:14:11.776Z,16.68
2022-11-10T08:16:38.721Z,16.62
2022-11-10T08:19:05.737Z,16.65
2022-11-10T08:21:32.711Z,16.79
2022-11-10T08:23:59.778Z,16.91
2022-11-10T08:26:26.805Z,17.00
2022-11-10T08:28:53.765Z,17.02
2022-11-10T08:31:22.697Z,17.04
2022-11-10T08:33:49.674Z,17.05
2022-11-10T08:36:16.626Z,17.12
2022-11-10T08:38:46.391Z,17.17
2022-11-10T08:41:13.468Z,17.27
2022-11-10T08:43:40.505Z,17.34
2022-11-10T08:46:07.607Z,17.43
2022-11-10T08:48:35.895Z,17.50
2022-11-10T08:51:02.903Z,17.48
2022-11-10T08:53:31.634Z,17.40
2022-11-10T08:55:59.916Z,17.30
2022-11-10T08:58:27.058Z,17.38
2022-11-10T09:00:54.375Z,17.50
2022-11-10T09:03:27.556Z,17.52
2022-11-10T09:05:58.555Z,17.62
2022-11-10T09:08:26.325Z,17.74
2022-11-10T09:10:53.286Z,17.80
2022-11-10T09:13:29.419Z,17.84
2022-11-10T09:15:59.922Z,17.89
2022-11-10T09:18:27.021Z,18.01
2022-11-10T09:20:55.509Z,18.05
2022-11-10T09:23:25.096Z,18.07
2022-11-10T09:25:56.209Z,18.03
2022-11-10T09:28:24.457Z,18.13
2022-11-10T09:30:52.335Z,18.42
2022-11-10T09:33:20.358Z,18.50
2022-11-10T09:35:47.798Z,18.43
2022-11-10T09:38:19.581Z,18.43
2022-11-10T09:41:02.792Z,18.51
2022-11-10T09:43:41.184Z,18.60
2022-11-10T09:46:17.031Z,18.67
2022-11-10T09:48:51.329Z,18.74
2022-11-10T09:51:25.600Z,18.81
2022-11-10T09:53:58.501Z,18.75
2022-11-10T09:56:33.289Z,18.75
2022-11-10T09:59:00.991Z,19.01
2022-11-10T10:01:45.559Z,19.17
2022-11-10T10:04:52.613Z,19.26
2022-11-10T10:07:28.598Z,19.39
2022-11-10T10:10:11.846Z,19.49
2022-11-10T10:13:06.514Z,19.46
2022-11-10T10:15:49.529Z,19.62
2022-11-10T10:18:31.896Z,19.81
2022-11-10T10:21:20.582Z,19.90
2022-11-10T10:24:09.341Z,19.85
2022-11-10T10:26:48.113Z,19.93
2022-11-10T10:29:22.265Z,19.90
2022-11-10T10:31:52.008Z,19.83
2022-11-10T10:34:23.929Z,19.68
2022-11-10T10:36:51.337Z,19.67
2022-11-10T10:39:30.321Z,19.68
2022-11-10T10:41:58.776Z,19.73
2022-11-10T10:44:26.278Z,19.70
2022-11-10T10:47:00.423Z,19.68
2022-11-10T10:49:36.739Z,19.72
2022-11-10T10:52:10.347Z,19.78
2022-11-10T10:54:41.778Z,19.79
2022-11-10T10:57:23.060Z,19.73
2022-11-10T10:59:51.103Z,19.68
2022-11-10T11:02:28.300Z,19.61
2022-11-10T11:05:14.012Z,19.55
2022-11-10T11:07:42.408Z,19.45
2022-11-10T11:10:21.910Z,19.30
2022-11-10T11:12:50.285Z,19.26
2022-11-10T11:15:28.520Z,19.12
2022-11-10T11:17:58.625Z,19.04
2022-11-10T11:20:38.571Z,19.04
2022-11-10T11:23:34.302Z,19.16
2022-11-10T11:26:12.449Z,19.34
2022-11-10T11:28:53.935Z,19.49
2022-11-10T11:31:42.670Z,19.64
2022-11-10T11:34:20.975Z,19.66
2022-11-10T11:37:16.592Z,19.73
2022-11-10T11:40:14.406Z,19.55
2022-11-10T11:43:02.062Z,19.67
2022-11-10T11:45:46.446Z,19.68
2022-11-10T11:48:49.926Z,19.77
2022-11-10T11:51:25.204Z,19.89
2022-11-10T11:54:22.439Z,19.89
2022-11-10T11:56:53.546Z,19.85
2022-11-10T11:59:46.631Z,19.83
2022-11-10T12:02:39.552Z,19.87
2022-11-10T12:05:32.979Z,19.90
2022-11-10T12:08:15.530Z,19.97
2022-11-10T12:11:03.788Z,19.87
2022-11-10T12:13:38.443Z,19.91
2022-11-10T12:16:19.751Z,19.91
2022-11-10T12:18:59.008Z,19.92
2022-11-10T12:21:39.495Z,19.98
2022-11-10T12:24:32.420Z,19.99
2022-11-10T12:27:08.976Z,20.04
2022-11-10T12:29:43.592Z,20.05
2022-11-10T12:32:19.226Z,20.04
2022-11-10T12:34:54.993Z,20.04
2022-11-10T12:37:34.060Z,20.02
2022-11-10T12:40:12.841Z,20.01
2022-11-10T12:42:46.316Z,19.87
2022-11-10T12:45:23.582Z,19.89
2022-11-10T12:47:56.282Z,19.80
2022-11-10T12:50:41.136Z,19.81
2022-11-10T12:53:20.465Z,19.89
2022-11-10T12:55:57.720Z,19.97
2022-11-10T12:58:26.654Z,19.89
2022-11-10T13:01:01.262Z,19.94
2022-11-10T13:03:32.720Z,20.00
2022-11-10T13:06:03.905Z,20.01
2022-11-10T13:08:47.051Z,19.97
2022-11-10T13:11:28.781Z,19.97
2022-11-10T13:14:00.337Z,20.01
2022-11-10T13:16:51.088Z,19.99
2022-11-10T13:19:51.138Z,19.90
2022-11-10T13:22:40.441Z,19.94
2022-11-10T13:25:50.587Z,19.89
2022-11-10T13:28:57.681Z,19.91
2022-11-10T13:31:54.190Z,19.93
2022-11-10T13:34:32.313Z,19.99
2022-11-10T13:37:00.587Z,20.02
2022-11-10T13:39:33.222Z,20.00
2022-11-10T13:42:16.272Z,20.00
2022-11-10T13:44:47.437Z,20.03
2022-11-10T13:47:53.480Z,20.01
2022-11-10T13:50:39.204Z,20.03
2022-11-10T13:53:27.060Z,20.01
2022-11-10T13:56:17.252Z,20.01
2022-11-10T13:58:45.925Z,19.97
2022-11-10T14:01:27.936Z,19.86
2022-11-10T14:04:01.835Z,19.80
2022-11-10T14:06:45.243Z,19.77
2022-11-10T14:09:28.954Z,19.77
2022-11-10T14:12:04.959Z,19.82
2022-11-10T14:14:49.189Z,19.80
2022-11-10T14:17:22.517Z,19.83
2022-11-10T14:19:50.630Z,19.86
2022-11-10T14:22:27.952Z,19.84
2022-11-10T14:25:04.248Z,19.85
2022-11-10T14:27:38.069Z,19.86
2022-11-10T14:30:26.223Z,19.86
2022-11-10T14:32:59.787Z,19.84
2022-11-10T14:35:30.769Z,19.84
2022-11-10T14:37:59.932Z,19.74
2022-11-10T14:40:28.898Z,19.64
2022-11-10T14:42:57.879Z,19.65
2022-11-10T14:45:26.941Z,19.72
2022-11-10T14:47:56.407Z,19.70
2022-11-10T14:50:27.053Z,19.70
2022-11-10T14:53:00.466Z,19.67
2022-11-10T14:55:33.925Z,19.68
2022-11-10T14:58:10.344Z,19.68
2022-11-10T15:00:40.150Z,19.75
2022-11-10T15:03:13.516Z,19.80
2022-11-10T15:05:41.101Z,19.81
2022-11-10T15:08:10.299Z,19.84
2022-11-10T15:10:47.895Z,19.84
2022-11-10T15:13:38.100Z,19.84
2022-11-10T15:16:25.755Z,19.74
2022-11-10T15:18:54.845Z,19.78
2022-11-10T15:21:29.305Z,19.79
2022-11-10T15:24:00.978Z,19.84
2022-11-10T15:26:37.572Z,19.86
2022-11-10T15:29:06.572Z,19.89
2022-11-10T15:31:36.354Z,19.91
2022-11-10T15:34:05.432Z,19.92
2022-11-10T15:36:35.558Z,19.92
2022-11-10T15:39:06.483Z,19.92
2022-11-10T15:41:36.123Z,19.92
2022-11-10T15:44:21.163Z,19.78
2022-11-10T15:46:52.650Z,19.79
2022-11-10T15:49:24.846Z,19.80
2022-11-10T15:51:57.213Z,19.77
2022-11-10T15:54:28.090Z,19.78
2022-11-10T15:56:55.512Z,19.84
2022-11-10T15:59:23.885Z,19.86
2022-11-10T16:01:51.485Z,19.87
2022-11-10T16:04:19.001Z,19.85
2022-11-10T16:06:47.840Z,19.86
2022-11-10T16:09:15.159Z,19.86
2022-11-10T16:11:44.671Z,19.81
2022-11-10T16:14:17.075Z,19.80
2022-11-10T16:16:45.686Z,19.85
2022-11-10T16:19:13.332Z,19.85
2022-11-10T16:21:41.101Z,19.84
2022-11-10T16:24:08.874Z,19.83
2022-11-10T16:26:35.918Z,19.82
2022-11-10T16:29:05.763Z,19.74
2022-11-10T16:31:34.907Z,19.68
2022-11-10T16:34:03.673Z,19.56
2022-11-10T16:36:36.218Z,19.46
2022-11-10T16:39:11.795Z,19.36
2022-11-10T16:41:39.218Z,19.36
2022-11-10T16:44:11.810Z,19.39
2022-11-10T16:46:41.176Z,19.38
2022-11-10T16:49:25.834Z,19.39
2022-11-10T16:51:53.359Z,19.41
2022-11-10T16:54:20.513Z,19.30
2022-11-10T16:56:47.715Z,19.30
2022-11-10T16:59:16.357Z,19.34
2022-11-10T17:01:46.557Z,19.32
2022-11-10T17:04:15.347Z,19.31
2022-11-10T17:06:43.200Z,19.20
2022-11-10T17:09:17.600Z,19.08
2022-11-10T17:11:44.612Z,19.05
2022-11-10T17:14:12.584Z,19.00
2022-11-10T17:16:43.383Z,19.03
2022-11-10T17:19:20.152Z,18.92
2022-11-10T17:21:50.313Z,19.01
2022-11-10T17:24:18.904Z,19.06
2022-11-10T17:26:46.484Z,19.00
2022-11-10T17:29:17.781Z,19.02
2022-11-10T17:31:45.433Z,19.04
2022-11-10T17:34:12.825Z,19.04
2022-11-10T17:36:41.474Z,19.05
2022-11-10T17:39:13.878Z,19.09
2022-11-10T17:41:40.898Z,19.07
2022-11-10T17:44:13.730Z,19.01
2022-11-10T17:46:40.759Z,18.99
2022-11-10T17:49:08.367Z,18.94
2022-11-10T17:51:36.599Z,18.98
2022-11-10T17:54:10.912Z,19.06
2022-11-10T17:56:37.849Z,19.12
2022-11-10T17:59:04.828Z,19.13
2022-11-10T18:01:31.900Z,19.17
2022-11-10T18:04:00.600Z,19.20
2022-11-10T18:06:27.544Z,19.21
2022-11-10T18:08:54.528Z,19.21
2022-11-10T18:11:22.935Z,19.26
2022-11-10T18:13:49.875Z,19.28
2022-11-10T18:16:16.829Z,19.31
2022-11-10T18:18:43.766Z,19.32
2022-11-10T18:21:11.863Z,19.35
2022-11-10T18:23:38.950Z,19.36
2022-11-10T18:26:08.251Z,19.31
2022-11-10T18:28:36.631Z,19.27
2022-11-10T18:31:08.647Z,19.25
2022-11-10T18:33:36.833Z,19.23
2022-11-10T18:36:04.981Z,19.25
2022-11-10T18:38:32.345Z,19.25
2022-11-10T18:41:22.725Z,19.21
2022-11-10T18:43:51.222Z,19.12
2022-11-10T18:46:18.240Z,19.04
2022-11-10T18:48:45.481Z,18.93
2022-11-10T18:51:12.466Z,18.84
2022-11-10T18:53:39.503Z,18.78
2022-11-10T18:56:07.221Z,18.75
2022-11-10T18:58:34.278Z,18.70
2022-11-10T19:01:08.269Z,18.67
2022-11-10T19:03:36.851Z,18.63
2022-11-10T19:06:04.629Z,18.55
2022-11-10T19:08:31.706Z,18.51
2022-11-10T19:10:59.064Z,18.46
2022-11-10T19:13:26.468Z,18.43
2022-11-10T19:15:55.636Z,18.38
2022-11-10T19:18:23.917Z,18.26
2022-11-10T19:20:51.101Z,18.15
2022-11-10T19:23:18.079Z,18.06
2022-11-10T19:25:45.114Z,17.96
2022-11-10T19:28:12.074Z,17.96
2022-11-10T19:30:39.752Z,17.96
2022-11-10T19:33:06.678Z,17.95
2022-11-10T19:35:40.798Z,17.95
2022-11-10T19:38:07.728Z,17.98
2022-11-10T19:40:38.837Z,17.92
2022-11-10T19:43:05.782Z,17.86
2022-11-10T19:45:34.786Z,17.85
2022-11-10T19:48:01.704Z,17.87
2022-11-10T19:50:28.658Z,17.92
2022-11-10T19:52:57.012Z,17.91
2022-11-10T19:55:23.958Z,17.93
2022-11-10T19:57:50.950Z,17.93
2022-11-10T20:00:18.283Z,17.93
2022-11-10T20:02:45.848Z,17.92
2022-11-10T20:05:12.973Z,17.91
2022-11-10T20:07:58.779Z,17.90
2022-11-10T20:10:29.529Z,17.84
2022-11-10T20:12:56.680Z,17.84
2022-11-10T20:15:23.664Z,17.82
2022-11-10T20:17:50.636Z,17.77
2022-11-10T20:20:17.746Z,17.76
2022-11-10T20:22:44.807Z,17.77
2022-11-10T20:25:12.146Z,17.78
2022-11-10T20:27:40.476Z,17.78
2022-11-10T20:30:09.539Z,17.76
2022-11-10T20:32:36.631Z,17.74
2022-11-10T20:35:04.448Z,17.71
2022-11-10T20:37:33.098Z,17.67
2022-11-10T20:40:00.829Z,17.64
2022-11-10T20:42:28.919Z,17.63
2022-11-10T20:44:57.451Z,17.60
2022-11-10T20:47:25.298Z,17.59
2022-11-10T20:49:52.324Z,17.55
2022-11-10T20:52:19.526Z,17.53
2022-11-10T20:54:46.470Z,17.48
2022-11-10T20:57:13.414Z,17.40
2022-11-10T20:59:40.582Z,17.24
2022-11-10T21:02:10.296Z,17.15
2022-11-10T21:04:42.690Z,17.10
2022-11-10T21:07:10.510Z,17.10
2022-11-10T21:09:37.531Z,17.13
2022-11-10T21:12:23.891Z,17.18
2022-11-10T21:14:50.809Z,17.18
2022-11-10T21:17:19.127Z,17.19
2022-11-10T21:19:46.625Z,17.20
2022-11-10T21:22:13.678Z,17.20
2022-11-10T21:24:40.606Z,17.20
2022-11-10T21:27:11.984Z,17.23
2022-11-10T21:29:38.945Z,17.19
2022-11-10T21:32:05.956Z,17.17
2022-11-10T21:34:35.534Z,17.16
2022-11-10T21:37:02.478Z,17.16
2022-11-10T21:39:29.387Z,17.15
2022-11-10T21:41:56.379Z,17.14
2022-11-10T21:44:24.609Z,17.14
2022-11-10T21:46:51.659Z,17.13
2022-11-10T21:49:18.704Z,17.14
2022-11-10T21:51:46.950Z,17.17
2022-11-10T21:54:13.974Z,17.16
2022-11-10T21:56:40.961Z,17.14
2022-11-10T21:59:07.982Z,17.14
2022-11-10T22:01:35.015Z,17.12
2022-11-10T22:04:02.047Z,17.19
2022-11-10T22:06:49.104Z,17.23
2022-11-10T22:09:37.378Z,17.28
2022-11-10T22:12:39.794Z,17.34
2022-11-10T22:15:31.831Z,17.39
2022-11-10T22:18:18.112Z,17.43
2022-11-10T22:20:45.389Z,17.41
2022-11-10T22:23:13.043Z,17.36
2022-11-10T22:25:41.415Z,17.30
2022-11-10T22:28:08.661Z,17.28
2022-11-10T22:30:37.323Z,17.34
2022-11-10T22:33:24.788Z,17.35
2022-11-10T22:35:57.785Z,17.38
2022-11-10T22:38:25.270Z,17.41
2022-11-10T22:41:12.550Z,17.42
2022-11-10T22:43:58.082Z,17.41
2022-11-10T22:46:25.022Z,17.39
2022-11-10T22:48:52.314Z,17.40
2022-11-10T22:51:19.446Z,17.39
2022-11-10T22:53:46.366Z,17.29
2022-11-10T22:56:14.870Z,17.27
2022-11-10T22:58:41.821Z,17.24
2022-11-10T23:01:11.271Z,17.30
2022-11-10T23:03:40.056Z,17.20
2022-11-10T23:06:07.803Z,17.19
2022-11-10T23:08:35.800Z,17.24
2022-11-10T23:11:06.000Z,17.25
2022-11-10T23:13:35.998Z,17.23
2022-11-10T23:16:05.412Z,17.23
2022-11-10T23:18:34.144Z,17.18
2022-11-10T23:21:04.144Z,17.21
2022-11-10T23:23:33.812Z,17.24
2022-11-10T23:26:04.151Z,17.24
2022-11-10T23:28:35.018Z,17.17
2022-11-10T23:31:04.498Z,17.06
2022-11-10T23:33:33.258Z,17.00
2022-11-10T23:36:00.952Z,17.04
2022-11-10T23:38:32.705Z,17.07
2022-11-10T23:41:01.496Z,17.11
2022-11-10T23:43:29.124Z,17.10
2022-11-10T23:46:07.264Z,17.07
2022-11-10T23:48:35.594Z,16.99
2022-11-10T23:51:03.819Z,16.98
2022-11-10T23:53:31.202Z,17.00
2022-11-10T23:56:00.835Z,17.01
2022-11-10T23:58:28.932Z,16.95
